createdAt,value
2018-06-11T00:02:02.354Z,13.33
2018-06-11T00:04:30.259Z,13.40
2018-06-11T00:06:57.984Z,12.80
2018-06-11T00:09:25.694Z,14.07
2018-06-11T00:11:53.437Z,12.70
2018-06-11T00:14:21.133Z,12.10
2018-06-11T00:16:48.885Z,11.40
2018-06-11T00:19:16.604Z,12.53
2018-06-11T00:21:44.410Z,12.50
2018-06-11T00:24:12.144Z,12.77
2018-06-11T00:26:39.915Z,12.83
2018-06-11T00:29:07.589Z,13.50
2018-06-11T00:31:35.378Z,13.90
2018-06-11T00:34:03.096Z,13.40
2018-06-11T00:36:30.901Z,14.30
2018-06-11T00:38:58.648Z,13.17
2018-06-11T00:41:26.442Z,12.20
2018-06-11T00:43:54.114Z,14.70
2018-06-11T00:46:21.890Z,14.03
2018-06-11T00:48:50.066Z,13.40
2018-06-11T00:51:17.772Z,13.50
2018-06-11T00:53:45.542Z,13.20
2018-06-11T00:56:13.307Z,13.30
2018-06-11T00:58:41.429Z,13.97
2018-06-11T01:01:10.977Z,13.87
2018-06-11T01:03:38.783Z,15.13
2018-06-11T01:06:06.535Z,14.30
2018-06-11T01:08:34.370Z,14.07
2018-06-11T01:11:06.431Z,14.23
2018-06-11T01:13:34.253Z,14.70
2018-06-11T01:16:02.085Z,14.10
2018-06-11T01:18:29.893Z,15.83
2018-06-11T01:20:57.574Z,14.17
2018-06-11T01:23:25.348Z,13.97
2018-06-11T01:25:53.043Z,15.10
2018-06-11T01:28:20.902Z,14.80
2018-06-11T01:30:48.606Z,13.87
2018-06-11T01:33:16.403Z,15.30
2018-06-11T01:35:44.192Z,14.90
2018-06-11T01:38:11.873Z,15.90
2018-06-11T01:40:39.625Z,17.40
2018-06-11T01:43:07.313Z,16.23
2018-06-11T01:45:35.117Z,15.97
2018-06-11T01:48:02.828Z,15.40
2018-06-11T01:50:30.635Z,14.23
2018-06-11T01:52:58.381Z,17.13
2018-06-11T01:55:26.132Z,15.60
2018-06-11T01:57:53.806Z,16.40
2018-06-11T02:00:21.539Z,13.90
2018-06-11T02:02:49.261Z,14.70
2018-06-11T02:05:17.069Z,14.57
2018-06-11T02:07:44.722Z,14.90
2018-06-11T02:10:12.445Z,14.83
2018-06-11T02:12:40.194Z,15.30
2018-06-11T02:15:07.917Z,14.27
2018-06-11T02:17:35.681Z,14.30
2018-06-11T02:20:03.395Z,14.33
2018-06-11T02:22:31.142Z,13.97
2018-06-11T02:24:58.869Z,14.70
2018-06-11T02:27:26.816Z,12.60
2018-06-11T02:29:54.506Z,14.30
2018-06-11T02:32:22.229Z,13.90
2018-06-11T02:34:50.057Z,13.73
2018-06-11T02:37:17.837Z,13.90
2018-06-11T02:39:45.429Z,13.47
2018-06-11T02:42:13.133Z,14.83
2018-06-11T02:44:40.901Z,14.33
2018-06-11T02:47:08.684Z,14.40
2018-06-11T02:49:36.414Z,14.60
2018-06-11T02:52:04.146Z,14.53
2018-06-11T02:54:31.877Z,14.50
2018-06-11T02:56:59.541Z,14.47
2018-06-11T02:59:27.317Z,15.07
2018-06-11T03:01:55.122Z,13.10
2018-06-11T03:04:22.920Z,14.10
2018-06-11T03:06:50.578Z,14.30
2018-06-11T03:09:18.319Z,12.73
2018-06-11T03:11:45.989Z,13.80
2018-06-11T03:14:13.805Z,13.90
2018-06-11T03:16:41.593Z,13.80
2018-06-11T03:19:09.518Z,13.90
2018-06-11T03:21:37.210Z,14.17
2018-06-11T03:24:05.089Z,13.60
2018-06-11T03:26:32.893Z,14.20
2018-06-11T03:29:00.598Z,14.57
2018-06-11T03:31:28.421Z,14.40
2018-06-11T03:33:56.141Z,14.90
2018-06-11T03:36:23.886Z,14.00
2018-06-11T03:38:52.100Z,14.20
2018-06-11T03:41:19.870Z,15.17
2018-06-11T03:43:47.569Z,14.47
2018-06-11T03:46:15.377Z,14.87
2018-06-11T03:48:43.515Z,15.07
2018-06-11T03:51:11.254Z,14.20
2018-06-11T03:53:38.968Z,14.40
2018-06-11T03:56:06.718Z,14.20
2018-06-11T03:58:34.453Z,14.13
2018-06-11T04:01:02.142Z,14.77
2018-06-11T04:03:29.969Z,13.73
2018-06-11T04:05:57.718Z,13.90
2018-06-11T04:08:25.424Z,14.23
2018-06-11T04:10:53.185Z,13.37
2018-06-11T04:13:20.896Z,14.23
2018-06-11T04:15:48.634Z,14.97
2018-06-11T04:18:16.421Z,14.67
2018-06-11T04:20:44.145Z,13.90
2018-06-11T04:23:11.857Z,14.03
2018-06-11T04:25:39.572Z,14.07
2018-06-11T04:28:07.257Z,14.40
2018-06-11T04:30:35.065Z,14.70
2018-06-11T04:33:02.784Z,14.13
2018-06-11T04:35:30.612Z,14.40
2018-06-11T04:37:58.357Z,15.37
2018-06-11T04:40:25.953Z,18.30
2018-06-11T04:42:53.549Z,15.17
2018-06-11T04:45:21.405Z,15.57
2018-06-11T04:47:49.070Z,15.47
2018-06-11T04:50:16.801Z,15.20
2018-06-11T04:52:44.497Z,15.27
2018-06-11T04:55:12.270Z,16.23
2018-06-11T04:57:42.953Z,15.37
2018-06-11T05:00:10.710Z,15.20
2018-06-11T05:02:38.537Z,15.00
2018-06-11T05:05:06.304Z,15.20
2018-06-11T05:07:34.597Z,14.70
2018-06-11T05:10:02.324Z,15.90
2018-06-11T05:12:30.153Z,15.03
2018-06-11T05:14:59.082Z,15.87
2018-06-11T05:17:26.992Z,15.30
2018-06-11T05:19:57.005Z,15.30
2018-06-11T05:22:24.764Z,14.57
2018-06-11T05:24:52.541Z,13.50
2018-06-11T05:27:20.338Z,14.30
2018-06-11T05:29:49.454Z,13.90
2018-06-11T05:32:17.227Z,13.53
2018-06-11T05:34:44.911Z,13.23
2018-06-11T05:37:12.693Z,12.87
2018-06-11T05:39:40.418Z,13.93
2018-06-11T05:42:08.129Z,13.87
2018-06-11T05:44:35.807Z,14.13
2018-06-11T05:47:03.993Z,12.93
2018-06-11T05:49:31.731Z,15.30
2018-06-11T05:51:59.531Z,12.50
2018-06-11T05:54:27.208Z,13.60
2018-06-11T05:56:54.951Z,13.17
2018-06-11T05:59:22.813Z,14.57
2018-06-11T06:01:50.522Z,14.10
2018-06-11T06:04:18.217Z,13.77
2018-06-11T06:06:45.780Z,14.87
2018-06-11T06:09:13.582Z,14.37
2018-06-11T06:11:41.325Z,14.37
2018-06-11T06:14:09.098Z,15.53
2018-06-11T06:16:36.800Z,14.83
2018-06-11T06:19:04.556Z,15.40
2018-06-11T06:21:32.335Z,14.70
2018-06-11T06:24:00.155Z,13.70
2018-06-11T06:26:28.030Z,14.90
2018-06-11T06:28:55.735Z,15.43
2018-06-11T06:31:23.674Z,15.20
2018-06-11T06:33:51.390Z,14.20
2018-06-11T06:36:19.145Z,15.53
2018-06-11T06:38:46.765Z,14.03
2018-06-11T06:41:14.514Z,14.40
2018-06-11T06:43:42.390Z,14.33
2018-06-11T06:46:10.147Z,12.97
2018-06-11T06:48:38.052Z,12.80
2018-06-11T06:51:05.882Z,12.93
2018-06-11T06:53:33.634Z,12.40
2018-06-11T06:56:01.381Z,12.40
2018-06-11T06:58:29.224Z,11.73
2018-06-11T07:00:56.972Z,11.77
2018-06-11T07:03:24.684Z,12.17
2018-06-11T07:05:52.756Z,10.60
2018-06-11T07:08:20.482Z,10.17
2018-06-11T07:10:48.378Z,10.27
2018-06-11T07:13:16.337Z,10.57
2018-06-11T07:15:44.140Z,10.10
2018-06-11T07:18:11.886Z,9.60
2018-06-11T07:20:39.591Z,9.33
2018-06-11T07:23:07.373Z,8.40
2018-06-11T07:25:35.149Z,9.03
2018-06-11T07:28:03.129Z,7.77
2018-06-11T07:30:30.702Z,8.10
2018-06-11T07:32:58.635Z,9.53
2018-06-11T07:35:26.378Z,8.57
2018-06-11T07:37:54.200Z,9.73
2018-06-11T07:40:22.070Z,8.30
2018-06-11T07:42:49.805Z,8.93
2018-06-11T07:45:17.681Z,8.20
2018-06-11T07:47:45.436Z,8.80
2018-06-11T07:50:13.310Z,8.53
2018-06-11T07:52:41.021Z,7.87
2018-06-11T07:55:08.852Z,8.53
2018-06-11T07:57:36.797Z,8.27
2018-06-11T08:00:04.622Z,7.87
2018-06-11T08:02:32.368Z,8.40
2018-06-11T08:05:04.281Z,8.87
2018-06-11T08:07:32.177Z,7.97
2018-06-11T08:09:59.833Z,8.90
2018-06-11T08:12:27.624Z,7.40
2018-06-11T08:14:55.341Z,7.83
2018-06-11T08:17:23.201Z,7.93
2018-06-11T08:19:55.578Z,8.33
2018-06-11T08:22:23.390Z,7.80
2018-06-11T08:24:51.356Z,7.60
2018-06-11T08:27:19.030Z,7.60
2018-06-11T08:29:46.832Z,8.00
2018-06-11T08:32:14.603Z,8.00
2018-06-11T08:34:42.292Z,8.37
2018-06-11T08:37:10.062Z,7.53
2018-06-11T08:39:37.921Z,7.50
2018-06-11T08:42:05.706Z,9.67
2018-06-11T08:44:35.262Z,8.00
2018-06-11T08:47:03.086Z,8.50
2018-06-11T08:49:30.830Z,7.20
2018-06-11T08:51:58.570Z,7.93
2018-06-11T08:54:26.314Z,7.10
2018-06-11T08:56:54.022Z,6.20
2018-06-11T08:59:21.734Z,6.57
2018-06-11T09:01:49.602Z,6.40
2018-06-11T09:04:17.313Z,6.40
2018-06-11T09:06:45.162Z,6.50
2018-06-11T09:09:12.929Z,7.27
2018-06-11T09:11:40.622Z,6.40
2018-06-11T09:16:43.446Z,5.63
2018-06-11T09:19:11.176Z,5.50
2018-06-11T09:21:38.866Z,6.63
2018-06-11T09:24:06.607Z,6.33
2018-06-11T09:26:36.955Z,6.00
2018-06-11T09:29:04.682Z,6.20
2018-06-11T09:31:32.407Z,6.53
2018-06-11T09:34:00.102Z,6.73
2018-06-11T09:36:27.872Z,6.77
2018-06-11T09:38:55.631Z,5.90
2018-06-11T09:41:23.371Z,5.70
2018-06-11T09:43:51.134Z,5.10
2018-06-11T09:46:18.812Z,5.37
2018-06-11T09:48:46.602Z,6.30
2018-06-11T09:51:14.309Z,5.47
2018-06-11T09:53:42.115Z,5.47
2018-06-11T09:56:09.826Z,5.67
2018-06-11T09:58:37.709Z,5.50
2018-06-11T10:01:05.602Z,5.37
2018-06-11T10:03:33.338Z,5.10
2018-06-11T10:06:02.067Z,5.20
2018-06-11T10:08:29.945Z,5.60
2018-06-11T10:10:57.658Z,5.50
2018-06-11T10:13:25.470Z,6.83
2018-06-11T10:15:53.242Z,6.27
2018-06-11T10:18:20.986Z,5.67
2018-06-11T10:20:48.781Z,5.40
2018-06-11T10:23:16.475Z,5.23
2018-06-11T10:25:44.205Z,5.53
2018-06-11T10:28:12.007Z,5.60
2018-06-11T10:30:39.784Z,5.03
2018-06-11T10:33:07.575Z,5.83
2018-06-11T10:35:35.374Z,5.13
2018-06-11T10:38:03.236Z,6.30
2018-06-11T10:40:30.951Z,5.87
2018-06-11T10:42:58.722Z,5.00
2018-06-11T10:45:26.487Z,5.00
2018-06-11T10:47:54.256Z,5.20
2018-06-11T10:50:22.030Z,5.77
2018-06-11T10:52:49.774Z,6.17
2018-06-11T10:55:17.503Z,5.93
2018-06-11T10:57:45.119Z,6.13
2018-06-11T11:00:12.831Z,5.87
2018-06-11T11:02:40.534Z,5.33
2018-06-11T11:05:08.283Z,5.70
2018-06-11T11:07:35.990Z,6.30
2018-06-11T11:10:03.950Z,6.00
2018-06-11T11:12:31.840Z,6.43
2018-06-11T11:14:59.586Z,6.53
2018-06-11T11:17:27.434Z,5.90
2018-06-11T11:19:55.159Z,6.57
2018-06-11T11:22:22.882Z,6.43
2018-06-11T11:24:50.585Z,6.20
2018-06-11T11:27:18.333Z,6.30
2018-06-11T11:29:46.166Z,6.27
2018-06-11T11:32:22.162Z,6.73
2018-06-11T11:34:49.995Z,6.97
2018-06-11T11:37:17.854Z,6.50
2018-06-11T11:39:45.607Z,7.50
2018-06-11T11:42:13.260Z,7.20
2018-06-11T11:44:41.122Z,6.63
2018-06-11T11:47:08.836Z,6.47
2018-06-11T11:49:36.697Z,6.90
2018-06-11T11:52:04.698Z,6.50
2018-06-11T11:54:32.572Z,6.10
2018-06-11T11:57:00.269Z,6.30
2018-06-11T11:59:28.741Z,6.97
2018-06-11T12:01:56.465Z,6.47
2018-06-11T12:04:26.224Z,6.90
2018-06-11T12:06:53.971Z,6.70
2018-06-11T12:09:23.482Z,6.80
2018-06-11T12:11:51.403Z,7.00
2018-06-11T12:14:19.110Z,6.90
2018-06-11T12:16:46.857Z,6.50
2018-06-11T12:19:14.685Z,7.13
2018-06-11T12:21:42.410Z,7.70
2018-06-11T12:24:11.190Z,7.33
2018-06-11T12:26:38.985Z,7.83
2018-06-11T12:29:06.849Z,7.27
2018-06-11T12:31:34.682Z,8.40
2018-06-11T12:34:02.512Z,6.90
2018-06-11T12:36:30.434Z,7.60
2018-06-11T12:38:58.207Z,7.00
2018-06-11T12:41:25.980Z,7.07
2018-06-11T12:43:56.354Z,7.07
2018-06-11T12:46:25.618Z,7.40
2018-06-11T12:48:53.342Z,7.10
2018-06-11T12:51:21.144Z,7.03
2018-06-11T12:53:48.930Z,7.77
2018-06-11T12:56:17.004Z,6.90
2018-06-11T12:58:44.744Z,6.63
2018-06-11T13:01:13.445Z,6.83
2018-06-11T13:03:43.946Z,7.37
2018-06-11T13:06:11.718Z,7.40
2018-06-11T13:08:40.070Z,6.57
2018-06-11T13:11:07.908Z,6.93
2018-06-11T13:13:35.690Z,6.50
2018-06-11T13:16:03.475Z,6.73
2018-06-11T13:18:31.444Z,7.03
2018-06-11T13:20:59.177Z,6.97
2018-06-11T13:23:26.943Z,7.40
2018-06-11T13:25:54.661Z,6.80
2018-06-11T13:28:23.158Z,6.63
2018-06-11T13:30:52.083Z,6.87
2018-06-11T13:33:19.906Z,6.73
2018-06-11T13:35:48.025Z,7.47
2018-06-11T13:38:15.874Z,6.20
2018-06-11T13:40:43.578Z,6.10
2018-06-11T13:43:11.301Z,5.93
2018-06-11T13:45:39.061Z,4.83
2018-06-11T13:48:06.746Z,4.93
2018-06-11T13:50:52.883Z,4.63
2018-06-11T13:53:20.671Z,5.73
2018-06-11T13:55:48.460Z,7.00
2018-06-11T13:58:16.223Z,5.67
2018-06-11T14:00:43.982Z,5.60
2018-06-11T14:03:11.766Z,6.20
2018-06-11T14:05:39.549Z,5.53
2018-06-11T14:08:07.401Z,5.63
2018-06-11T14:10:35.101Z,5.50
2018-06-11T14:13:02.898Z,5.47
2018-06-11T14:15:30.691Z,5.87
2018-06-11T14:17:58.561Z,5.10
2018-06-11T14:20:26.332Z,4.93
2018-06-11T14:22:54.074Z,5.23
2018-06-11T14:25:21.830Z,5.63
2018-06-11T14:27:50.178Z,5.30
2018-06-11T14:30:17.917Z,5.93
2018-06-11T14:32:45.705Z,4.77
2018-06-11T14:35:13.641Z,5.90
2018-06-11T14:37:46.456Z,5.47
2018-06-11T14:46:01.567Z,4.60
2018-06-11T14:48:29.586Z,4.63
2018-06-11T14:50:57.289Z,5.70
2018-06-11T14:53:25.011Z,5.90
2018-06-11T14:55:58.320Z,4.73
2018-06-11T14:58:26.061Z,5.63
2018-06-11T15:00:53.854Z,5.33
2018-06-11T15:03:21.598Z,5.10
2018-06-11T15:05:49.423Z,5.00
2018-06-11T15:11:10.493Z,5.27
2018-06-11T15:13:38.360Z,6.07
2018-06-11T15:16:06.324Z,5.40
2018-06-11T15:18:34.083Z,5.30
2018-06-11T15:21:01.806Z,5.53
2018-06-11T15:26:22.409Z,6.33
2018-06-11T15:28:50.104Z,6.30
2018-06-11T15:31:17.904Z,7.00
2018-06-11T15:33:45.673Z,6.70
2018-06-11T15:36:13.477Z,6.07
2018-06-11T15:38:41.865Z,7.50
2018-06-11T15:41:09.606Z,6.87
2018-06-11T15:43:37.378Z,6.00
2018-06-11T15:46:05.346Z,6.17
2018-06-11T15:48:33.119Z,6.60
2018-06-11T15:51:01.699Z,6.00
2018-06-11T15:53:29.457Z,6.47
2018-06-11T15:55:57.330Z,4.53
2018-06-11T15:58:25.504Z,4.80
2018-06-11T16:00:53.218Z,5.00
2018-06-11T16:03:20.954Z,5.17
2018-06-11T16:05:48.782Z,5.03
2018-06-11T16:08:16.486Z,5.93
2018-06-11T16:10:44.293Z,5.60
2018-06-11T16:13:12.179Z,5.73
2018-06-11T16:15:40.220Z,6.77
2018-06-11T16:18:08.106Z,7.23
2018-06-11T16:20:35.929Z,8.27
2018-06-11T16:23:03.560Z,10.53
2018-06-11T16:25:31.405Z,7.10
2018-06-11T16:27:59.907Z,3.00
2018-06-11T16:30:29.478Z,2.20
2018-06-11T16:33:00.644Z,2.50
2018-06-11T16:35:28.763Z,4.10
2018-06-11T16:37:56.710Z,4.03
2018-06-11T16:40:24.630Z,4.83
2018-06-11T16:42:52.617Z,4.60
2018-06-11T16:45:20.427Z,5.13
2018-06-11T16:47:48.399Z,4.00
2018-06-11T16:50:18.002Z,3.90
2018-06-11T16:52:45.846Z,5.20
2018-06-11T16:55:14.584Z,5.27
2018-06-11T16:57:43.387Z,4.27
2018-06-11T17:00:11.310Z,5.03
2018-06-11T17:02:39.056Z,4.67
2018-06-11T17:05:07.055Z,4.67
2018-06-11T17:07:35.143Z,2.70
2018-06-11T17:12:55.783Z,3.60
2018-06-11T17:18:16.141Z,2.93
2018-06-11T17:20:44.027Z,3.53
2018-06-11T17:23:11.787Z,2.10
2018-06-11T17:25:39.751Z,4.20
2018-06-11T17:28:07.739Z,2.43
2018-06-11T17:30:35.564Z,2.70
2018-06-11T17:33:07.392Z,2.30
2018-06-11T17:35:36.220Z,2.47
2018-06-11T17:38:04.616Z,2.60
2018-06-11T17:40:40.301Z,2.60
2018-06-11T17:43:08.170Z,2.17
2018-06-11T17:45:36.071Z,2.93
2018-06-11T17:50:56.845Z,3.37
2018-06-11T17:53:24.605Z,3.60
2018-06-11T17:55:52.486Z,3.40
2018-06-11T17:58:20.234Z,2.90
2018-06-11T18:00:48.048Z,3.93
2018-06-11T18:03:15.885Z,2.80
2018-06-11T18:05:43.671Z,3.50
2018-06-11T18:08:11.485Z,2.80
2018-06-11T18:10:39.212Z,2.17
2018-06-11T18:13:06.970Z,3.20
2018-06-11T18:15:41.602Z,3.30
2018-06-11T18:18:09.335Z,2.90
2018-06-11T18:20:37.155Z,2.97
2018-06-11T18:23:04.900Z,3.30
2018-06-11T18:25:32.888Z,2.93
2018-06-11T18:28:00.840Z,3.10
2018-06-11T18:30:29.340Z,3.20
2018-06-11T18:32:57.272Z,2.97
2018-06-11T18:35:25.255Z,2.50
2018-06-11T18:37:53.020Z,2.87
2018-06-11T18:40:20.838Z,3.30
2018-06-11T18:42:48.642Z,3.70
2018-06-11T18:45:16.466Z,3.37
2018-06-11T18:47:44.457Z,3.63
2018-06-11T18:50:12.421Z,4.40
2018-06-11T18:52:40.189Z,4.23
2018-06-11T18:55:08.102Z,5.37
2018-06-11T18:57:35.861Z,4.80
2018-06-11T19:00:04.176Z,4.83
2018-06-11T19:02:31.959Z,4.33
2018-06-11T19:05:00.009Z,5.43
2018-06-11T19:07:27.705Z,4.87
2018-06-11T19:09:55.484Z,5.70
2018-06-11T19:12:23.339Z,7.10
2018-06-11T19:14:51.192Z,6.37
2018-06-11T19:17:19.016Z,6.60
2018-06-11T19:22:40.187Z,4.90
2018-06-11T19:25:08.006Z,5.80
2018-06-11T19:27:35.810Z,5.87
2018-06-11T19:30:03.573Z,5.37
2018-06-11T19:32:31.299Z,4.03
2018-06-11T19:34:59.256Z,4.50
2018-06-11T19:40:17.420Z,4.43
2018-06-11T19:42:45.280Z,3.73
2018-06-11T19:48:06.250Z,5.00
2018-06-11T19:50:34.071Z,5.10
2018-06-11T19:53:01.993Z,6.37
2018-06-11T19:55:29.834Z,6.30
2018-06-11T19:57:57.651Z,7.23
2018-06-11T20:00:25.542Z,6.90
2018-06-11T20:02:53.365Z,7.40
2018-06-11T20:05:21.203Z,7.00
2018-06-11T20:07:48.981Z,5.40
2018-06-11T20:10:16.762Z,5.00
2018-06-11T20:12:44.606Z,5.10
2018-06-11T20:15:12.459Z,4.33
2018-06-11T20:17:40.407Z,4.87
2018-06-11T20:20:08.311Z,4.60
2018-06-11T20:22:36.203Z,4.90
2018-06-11T20:25:04.053Z,4.87
2018-06-11T20:27:32.732Z,4.33
2018-06-11T20:30:00.622Z,4.27
2018-06-11T20:32:28.479Z,5.10
2018-06-11T20:34:57.818Z,5.70
2018-06-11T20:37:25.764Z,6.20
2018-06-11T20:39:53.549Z,7.30
2018-06-11T20:42:21.431Z,7.17
2018-06-11T20:44:49.232Z,8.07
2018-06-11T20:47:17.173Z,8.43
2018-06-11T20:49:45.896Z,9.20
2018-06-11T20:52:13.878Z,9.57
2018-06-11T20:54:41.718Z,9.10
2018-06-11T20:57:09.506Z,10.10
2018-06-11T20:59:37.304Z,9.43
2018-06-11T21:02:05.178Z,10.17
2018-06-11T21:04:33.098Z,10.67
2018-06-11T21:07:00.822Z,11.27
2018-06-11T21:09:28.711Z,12.63
2018-06-11T21:14:50.323Z,9.70
2018-06-11T21:17:18.249Z,8.80
2018-06-11T21:19:45.978Z,8.90
2018-06-11T21:22:13.818Z,10.20
2018-06-11T21:24:44.871Z,10.00
2018-06-11T21:27:14.149Z,11.77
2018-06-11T21:29:42.005Z,12.63
2018-06-11T21:32:09.789Z,14.33
2018-06-11T21:34:37.633Z,15.87
2018-06-11T21:37:05.567Z,14.93
2018-06-11T21:39:33.836Z,16.63
2018-06-11T21:42:02.261Z,16.77
2018-06-11T21:44:30.095Z,18.13
2018-06-11T21:46:57.845Z,18.03
2018-06-11T21:49:25.673Z,18.40
2018-06-11T21:51:53.505Z,17.67
2018-06-11T21:54:21.370Z,19.17
2018-06-11T21:56:49.178Z,13.63
2018-06-11T21:59:17.229Z,17.30
2018-06-11T22:01:51.443Z,13.50
2018-06-11T22:04:19.277Z,18.87
2018-06-11T22:06:47.102Z,17.70
2018-06-11T22:09:15.221Z,19.43
2018-06-11T22:11:44.187Z,19.70
2018-06-11T22:14:12.118Z,19.67
2018-06-11T22:16:40.018Z,17.70
2018-06-11T22:19:07.661Z,17.67
2018-06-11T22:21:35.486Z,19.77
2018-06-11T22:24:03.337Z,17.33
2018-06-11T22:26:31.155Z,18.97
2018-06-11T22:28:58.917Z,19.07
2018-06-11T22:31:33.355Z,16.20
2018-06-11T22:34:01.705Z,20.43
2018-06-11T22:36:29.626Z,21.37
2018-06-11T22:38:57.375Z,23.40
2018-06-11T22:41:25.223Z,22.70
2018-06-11T22:43:52.907Z,23.53
2018-06-11T22:46:20.866Z,21.20
2018-06-11T22:48:48.423Z,22.30
2018-06-11T22:51:16.161Z,23.17
2018-06-11T22:53:43.891Z,21.70
2018-06-11T22:56:11.641Z,21.10
2018-06-11T22:58:39.425Z,21.60
2018-06-11T23:01:07.195Z,20.57
2018-06-11T23:03:35.775Z,22.73
2018-06-11T23:06:03.534Z,23.40
2018-06-11T23:08:31.300Z,22.67
2018-06-11T23:10:59.093Z,24.30
2018-06-11T23:13:26.863Z,21.47
2018-06-11T23:15:54.591Z,22.63
2018-06-11T23:18:22.210Z,23.00
2018-06-11T23:20:49.906Z,21.50
2018-06-11T23:23:17.665Z,20.20
2018-06-11T23:25:45.721Z,20.00
2018-06-11T23:28:13.610Z,22.13
2018-06-11T23:30:41.314Z,20.67
2018-06-11T23:33:09.177Z,23.30
2018-06-11T23:35:36.914Z,23.20
2018-06-11T23:38:04.706Z,20.90
2018-06-11T23:40:35.646Z,22.27
2018-06-11T23:43:03.409Z,21.77
2018-06-11T23:45:31.133Z,20.77
2018-06-11T23:47:58.873Z,19.83
2018-06-11T23:50:26.680Z,21.40
2018-06-11T23:52:54.693Z,21.23
2018-06-11T23:55:22.542Z,20.77
2018-06-11T23:57:50.149Z,21.83
